Time;durP1;ratioP1;P1;durP2;ratioP2;P2;SDS_P1;SDS_P2;PMS_P1;PMS_P2;Temp;Humidity;BMP_temperature;BMP_pressure;BME280_temperature;BME280_humidity;BME280_pressure;Samples;Min_cycle;Max_cycle;Signal;HPM_P1;HPM_P2
2022/05/18 00:00:27;;;;;;;;;;;14.30;46.10;;;;;;5086807;28;19908;-56
2022/05/18 00:03:04;;;;;;;;;;;14.30;46.40;;;;;;5085950;28;19920;-57
2022/05/18 00:05:37;;;;;;;;;;;14.20;46.50;;;;;;5089168;28;19911;-57
2022/05/18 00:08:03;;;;;;;;;;;14.20;46.30;;;;;;5088432;28;19915;-57
2022/05/18 00:10:29;;;;;;;;;;;14.20;46.50;;;;;;5090318;28;20347;-57
2022/05/18 00:12:55;;;;;;;;;;;14.20;46.40;;;;;;5088984;28;19915;-57
2022/05/18 00:15:22;;;;;;;;;;;14.10;46.30;;;;;;5086656;28;19908;-57
2022/05/18 00:17:47;;;;;;;;;;;14.10;46.50;;;;;;5087747;28;19908;-57
2022/05/18 00:20:13;;;;;;;;;;;14.10;46.60;;;;;;5089715;28;20404;-57
2022/05/18 00:22:42;;;;;;;;;;;14.10;46.70;;;;;;5085450;28;19947;-57
2022/05/18 00:25:08;;;;;;;;;;;14.00;46.80;;;;;;5085317;28;20359;-57
2022/05/18 00:27:34;;;;;;;;;;;14.00;47.00;;;;;;5087822;28;20252;-57
2022/05/18 00:29:59;;;;;;;;;;;14.00;47.00;;;;;;5087167;28;19916;-57
2022/05/18 00:32:25;;;;;;;;;;;14.00;46.90;;;;;;5089650;28;19915;-57
2022/05/18 00:34:50;;;;;;;;;;;13.90;47.30;;;;;;5087215;28;20356;-57
2022/05/18 00:37:16;;;;;;;;;;;13.90;47.30;;;;;;5091904;28;19908;-57
2022/05/18 00:39:42;;;;;;;;;;;13.90;47.40;;;;;;5092682;28;19961;-56
2022/05/18 00:42:16;;;;;;;;;;;13.80;47.40;;;;;;5091257;28;19920;-57
2022/05/18 00:44:42;;;;;;;;;;;13.80;47.50;;;;;;5088290;28;20257;-57
2022/05/18 00:47:07;;;;;;;;;;;13.80;47.80;;;;;;5092282;28;20015;-57
2022/05/18 00:49:33;;;;;;;;;;;13.70;47.90;;;;;;5092850;28;19908;-57
2022/05/18 00:51:59;;;;;;;;;;;13.70;47.80;;;;;;5091227;28;20260;-57
2022/05/18 00:54:27;;;;;;;;;;;13.70;48.20;;;;;;5094496;28;19960;-57
2022/05/18 00:56:59;;;;;;;;;;;13.70;48.30;;;;;;5091869;28;19912;-57
2022/05/18 00:59:27;;;;;;;;;;;13.70;48.30;;;;;;5090871;28;19912;-57
2022/05/18 01:01:54;;;;;;;;;;;13.60;48.10;;;;;;5090060;28;19912;-57
2022/05/18 01:04:20;;;;;;;;;;;13.60;48.00;;;;;;5090353;28;19915;-57
2022/05/18 01:07:04;;;;;;;;;;;13.60;48.30;;;;;;5092623;28;19912;-57
2022/05/18 01:09:34;;;;;;;;;;;13.60;48.40;;;;;;5092257;28;19908;-57
2022/05/18 01:11:59;;;;;;;;;;;13.50;48.10;;;;;;5092167;28;19908;-56
2022/05/18 01:14:48;;;;;;;;;;;13.50;48.40;;;;;;5094653;28;19922;-57
2022/05/18 01:17:16;;;;;;;;;;;13.40;48.70;;;;;;5079693;28;19912;-56
2022/05/18 01:19:44;;;;;;;;;;;13.40;48.70;;;;;;5090881;28;19911;-57
2022/05/18 01:22:14;;;;;;;;;;;13.40;48.70;;;;;;5090226;28;20275;-57
2022/05/18 01:24:46;;;;;;;;;;;13.30;48.90;;;;;;5089952;28;19965;-57
2022/05/18 01:27:12;;;;;;;;;;;13.30;49.40;;;;;;5091065;28;19931;-57
2022/05/18 01:29:38;;;;;;;;;;;13.20;49.50;;;;;;5091466;28;19908;-57
2022/05/18 01:32:04;;;;;;;;;;;13.20;49.70;;;;;;5090965;28;19908;-57
2022/05/18 01:34:31;;;;;;;;;;;13.20;49.90;;;;;;5091930;28;19914;-57
2022/05/18 01:36:57;;;;;;;;;;;13.20;49.90;;;;;;5090232;28;19908;-57
2022/05/18 01:39:26;;;;;;;;;;;13.10;49.80;;;;;;5090552;28;19939;-57
2022/05/18 01:41:54;;;;;;;;;;;13.10;49.80;;;;;;5091824;28;19908;-57
2022/05/18 01:44:20;;;;;;;;;;;13.00;49.90;;;;;;5089361;28;19915;-57
2022/05/18 01:46:48;;;;;;;;;;;13.00;49.90;;;;;;5087951;28;20398;-57
2022/05/18 01:49:14;;;;;;;;;;;12.90;49.90;;;;;;5090228;28;19915;-57
2022/05/18 01:51:43;;;;;;;;;;;12.90;49.90;;;;;;5091690;28;19912;-57
2022/05/18 01:54:08;;;;;;;;;;;12.80;50.10;;;;;;5089843;28;19908;-57
2022/05/18 01:56:34;;;;;;;;;;;12.80;50.50;;;;;;5088857;28;19930;-57
2022/05/18 01:58:59;;;;;;;;;;;12.80;50.70;;;;;;5091457;28;19989;-57
2022/05/18 02:01:26;;;;;;;;;;;12.70;50.70;;;;;;5090449;28;20382;-57
2022/05/18 02:03:51;;;;;;;;;;;12.70;50.90;;;;;;5089870;28;19915;-56
2022/05/18 02:06:17;;;;;;;;;;;12.70;51.30;;;;;;5089866;28;19912;-56
2022/05/18 02:08:42;;;;;;;;;;;12.60;51.10;;;;;;5091588;28;19943;-57
2022/05/18 02:11:12;;;;;;;;;;;12.60;51.40;;;;;;5090201;28;20272;-57
2022/05/18 02:13:37;;;;;;;;;;;12.60;51.80;;;;;;5090282;28;20256;-57
2022/05/18 02:16:03;;;;;;;;;;;12.60;51.60;;;;;;5092166;28;19915;-56
2022/05/18 02:18:28;;;;;;;;;;;12.50;51.50;;;;;;5090051;28;19915;-57
2022/05/18 02:20:54;;;;;;;;;;;12.50;51.80;;;;;;5090719;28;19908;-57
2022/05/18 02:23:19;;;;;;;;;;;12.50;52.50;;;;;;5090009;28;20562;-57
2022/05/18 02:25:45;;;;;;;;;;;12.50;51.60;;;;;;5088744;28;19916;-57
2022/05/18 02:28:11;;;;;;;;;;;12.50;51.80;;;;;;5090534;28;19907;-56
2022/05/18 02:30:37;;;;;;;;;;;12.60;52.00;;;;;;5087265;28;19914;-56
2022/05/18 02:33:03;;;;;;;;;;;12.50;51.90;;;;;;5089801;28;19916;-57
2022/05/18 02:35:29;;;;;;;;;;;12.50;52.10;;;;;;5091289;28;20360;-57
2022/05/18 02:37:55;;;;;;;;;;;12.50;52.20;;;;;;5090164;28;19904;-57
2022/05/18 02:40:20;;;;;;;;;;;12.50;52.30;;;;;;5089646;28;20010;-57
2022/05/18 02:42:46;;;;;;;;;;;12.50;52.30;;;;;;5091163;28;19908;-56
2022/05/18 02:45:11;;;;;;;;;;;12.50;52.30;;;;;;5087636;28;20006;-56
2022/05/18 02:47:37;;;;;;;;;;;12.40;52.20;;;;;;5090563;28;19908;-57
2022/05/18 02:50:02;;;;;;;;;;;12.40;52.90;;;;;;5090336;28;19960;-57
2022/05/18 02:52:28;;;;;;;;;;;12.40;53.10;;;;;;5089928;28;19999;-57
2022/05/18 02:57:38;;;;;;;;;;;12.30;53.80;;;;;;5091458;28;19961;-57
2022/05/18 03:00:05;;;;;;;;;;;12.30;53.10;;;;;;5090851;28;19908;-57
2022/05/18 03:02:30;;;;;;;;;;;12.30;53.60;;;;;;5090062;28;19916;-57
2022/05/18 03:04:56;;;;;;;;;;;12.30;53.90;;;;;;5090248;28;20256;-57
2022/05/18 03:07:21;;;;;;;;;;;12.20;54.10;;;;;;5089920;28;19916;-57
2022/05/18 03:09:47;;;;;;;;;;;12.20;54.40;;;;;;5091675;28;19915;-56
2022/05/18 03:12:12;;;;;;;;;;;12.30;53.90;;;;;;5090547;28;19911;-57
2022/05/18 03:14:38;;;;;;;;;;;12.30;54.40;;;;;;5089544;28;20276;-57
2022/05/18 03:17:03;;;;;;;;;;;12.30;54.30;;;;;;5091051;28;19911;-57
2022/05/18 03:19:29;;;;;;;;;;;12.30;54.30;;;;;;5090766;28;19915;-56
2022/05/18 03:24:38;;;;;;;;;;;12.40;54.90;;;;;;5087535;28;20548;-57
2022/05/18 03:27:04;;;;;;;;;;;12.60;54.80;;;;;;5084535;28;19916;-56
2022/05/18 03:29:30;;;;;;;;;;;12.80;54.90;;;;;;5090525;28;20407;-57
2022/05/18 03:31:55;;;;;;;;;;;13.00;54.70;;;;;;5089623;28;19908;-57
2022/05/18 03:34:21;;;;;;;;;;;13.20;54.90;;;;;;5088605;28;19915;-57
2022/05/18 03:36:47;;;;;;;;;;;13.40;54.90;;;;;;5086600;28;20387;-57
2022/05/18 03:39:12;;;;;;;;;;;13.60;54.30;;;;;;5090701;28;19951;-57
2022/05/18 03:41:39;;;;;;;;;;;13.70;54.00;;;;;;5087914;28;19994;-57
2022/05/18 03:44:07;;;;;;;;;;;13.70;53.70;;;;;;5087922;28;20315;-57
2022/05/18 03:46:33;;;;;;;;;;;13.70;53.80;;;;;;5089331;28;22818;-57
2022/05/18 03:48:59;;;;;;;;;;;13.60;53.70;;;;;;5090781;28;19998;-57
2022/05/18 03:51:25;;;;;;;;;;;13.50;53.80;;;;;;5090549;28;19982;-57
2022/05/18 03:53:51;;;;;;;;;;;13.40;53.90;;;;;;5087093;28;19908;-56
2022/05/18 03:56:16;;;;;;;;;;;13.30;53.90;;;;;;5089469;28;19999;-57
2022/05/18 03:58:42;;;;;;;;;;;13.30;54.10;;;;;;5069636;28;20022;-57
2022/05/18 04:01:08;;;;;;;;;;;13.20;54.30;;;;;;5087087;28;19998;-57
2022/05/18 04:03:35;;;;;;;;;;;13.20;54.10;;;;;;5090027;28;20006;-57
2022/05/18 04:06:01;;;;;;;;;;;13.10;54.30;;;;;;5091729;28;19934;-57
2022/05/18 04:08:26;;;;;;;;;;;13.00;54.60;;;;;;5088849;28;19908;-57
2022/05/18 04:10:54;;;;;;;;;;;13.00;54.60;;;;;;5089710;28;19956;-57
2022/05/18 04:13:20;;;;;;;;;;;12.90;55.00;;;;;;5090101;28;19908;-57
2022/05/18 04:15:46;;;;;;;;;;;12.80;54.70;;;;;;5089353;28;19943;-56
2022/05/18 04:18:11;;;;;;;;;;;12.80;55.00;;;;;;5085703;28;20525;-56
2022/05/18 04:20:38;;;;;;;;;;;12.70;55.00;;;;;;5087506;28;20265;-57
2022/05/18 04:23:04;;;;;;;;;;;12.70;55.10;;;;;;5088788;28;19998;-57
2022/05/18 04:25:29;;;;;;;;;;;12.60;55.10;;;;;;5085884;28;19920;-57
2022/05/18 04:27:56;;;;;;;;;;;12.60;55.40;;;;;;5087202;28;20305;-57
2022/05/18 04:30:24;;;;;;;;;;;12.60;55.70;;;;;;5088987;28;19915;-57
2022/05/18 04:32:49;;;;;;;;;;;12.60;55.70;;;;;;5085273;28;19908;-56
2022/05/18 04:35:21;;;;;;;;;;;12.60;55.80;;;;;;5087719;28;19915;-56
2022/05/18 04:37:47;;;;;;;;;;;12.60;55.70;;;;;;5086824;28;20414;-57
2022/05/18 04:40:12;;;;;;;;;;;12.60;55.80;;;;;;5087328;28;19912;-58
2022/05/18 04:42:38;;;;;;;;;;;12.70;56.00;;;;;;5083987;28;20283;-57
2022/05/18 04:45:05;;;;;;;;;;;12.70;56.30;;;;;;5088509;28;19915;-58
2022/05/18 04:47:31;;;;;;;;;;;12.70;55.90;;;;;;5088606;28;19977;-57
2022/05/18 04:49:57;;;;;;;;;;;12.80;56.10;;;;;;5084455;28;20011;-57
2022/05/18 04:52:23;;;;;;;;;;;12.80;55.70;;;;;;5084001;28;19912;-57
2022/05/18 04:54:48;;;;;;;;;;;12.80;55.60;;;;;;5086825;28;19998;-57
2022/05/18 04:57:14;;;;;;;;;;;12.90;55.60;;;;;;5088599;28;19908;-58
2022/05/18 04:59:40;;;;;;;;;;;12.90;55.60;;;;;;5087080;28;20010;-58
2022/05/18 05:02:06;;;;;;;;;;;13.00;55.60;;;;;;5087801;28;19915;-55
2022/05/18 05:04:32;;;;;;;;;;;13.10;55.80;;;;;;5088678;28;19938;-55
2022/05/18 05:06:57;;;;;;;;;;;13.40;55.90;;;;;;5088297;28;19967;-56
2022/05/18 05:09:24;;;;;;;;;;;14.10;56.00;;;;;;5089081;28;20387;-56
2022/05/18 05:11:50;;;;;;;;;;;14.90;54.50;;;;;;5082572;28;19935;-55
2022/05/18 05:14:15;;;;;;;;;;;15.40;53.60;;;;;;5085099;28;19912;-55
2022/05/18 05:16:41;;;;;;;;;;;15.90;53.40;;;;;;5085329;28;20302;-56
2022/05/18 05:19:07;;;;;;;;;;;16.50;52.40;;;;;;5085933;28;20006;-54
2022/05/18 05:21:33;;;;;;;;;;;17.10;51.80;;;;;;5084416;28;19915;-56
2022/05/18 05:23:58;;;;;;;;;;;17.60;50.30;;;;;;5091446;28;19912;-57
2022/05/18 05:26:25;;;;;;;;;;;17.70;49.70;;;;;;5085802;28;19946;-54
2022/05/18 05:28:51;;;;;;;;;;;17.70;49.70;;;;;;5087158;28;19916;-55
2022/05/18 05:31:16;;;;;;;;;;;17.60;49.80;;;;;;5093331;28;19916;-56
2022/05/18 05:33:42;;;;;;;;;;;17.50;49.90;;;;;;5088772;28;19939;-56
2022/05/18 05:36:08;;;;;;;;;;;17.30;49.70;;;;;;5086412;28;19946;-56
2022/05/18 05:38:34;;;;;;;;;;;17.10;49.90;;;;;;5091196;28;19912;-55
2022/05/18 05:41:00;;;;;;;;;;;17.00;50.40;;;;;;5093460;28;20311;-55
2022/05/18 05:43:25;;;;;;;;;;;16.90;50.70;;;;;;5092736;28;19915;-56
2022/05/18 05:45:58;;;;;;;;;;;16.80;50.70;;;;;;5088133;28;19920;-56
2022/05/18 05:48:24;;;;;;;;;;;16.80;51.10;;;;;;5088437;28;19937;-57
2022/05/18 05:50:49;;;;;;;;;;;16.70;51.30;;;;;;5084379;28;19954;-57
2022/05/18 05:53:15;;;;;;;;;;;16.80;51.40;;;;;;5089395;28;19914;-56
2022/05/18 05:55:40;;;;;;;;;;;16.80;51.20;;;;;;5090991;28;19950;-57
2022/05/18 05:58:06;;;;;;;;;;;16.70;51.00;;;;;;5089435;28;20007;-57
2022/05/18 06:00:31;;;;;;;;;;;16.70;50.60;;;;;;5088326;28;20390;-56
2022/05/18 06:02:57;;;;;;;;;;;16.60;50.70;;;;;;5081538;28;19916;-56
2022/05/18 06:05:22;;;;;;;;;;;16.40;51.00;;;;;;5094874;28;20359;-56
2022/05/18 06:07:48;;;;;;;;;;;16.40;51.40;;;;;;5084677;28;20413;-57
2022/05/18 06:10:14;;;;;;;;;;;16.30;51.40;;;;;;5087480;28;20309;-56
2022/05/18 06:12:39;;;;;;;;;;;16.30;51.40;;;;;;5090636;28;19955;-57
2022/05/18 06:15:06;;;;;;;;;;;16.20;51.90;;;;;;5087305;28;19912;-56
2022/05/18 06:17:32;;;;;;;;;;;16.30;51.60;;;;;;5090873;28;19908;-57
2022/05/18 06:19:58;;;;;;;;;;;16.20;51.70;;;;;;5087140;28;20323;-55
2022/05/18 06:22:25;;;;;;;;;;;16.20;51.50;;;;;;5087872;28;19912;-55
2022/05/18 06:24:51;;;;;;;;;;;16.30;51.50;;;;;;5086299;28;20682;-57
2022/05/18 06:27:17;;;;;;;;;;;16.30;51.40;;;;;;5082644;28;19960;-58
2022/05/18 06:29:43;;;;;;;;;;;16.30;51.30;;;;;;5082846;28;19915;-57
2022/05/18 06:32:08;;;;;;;;;;;16.40;51.50;;;;;;5082285;28;19918;-57
2022/05/18 06:34:35;;;;;;;;;;;16.40;51.40;;;;;;5077358;28;20011;-57
2022/05/18 06:37:03;;;;;;;;;;;16.40;50.90;;;;;;5076196;28;20652;-56
2022/05/18 06:39:28;;;;;;;;;;;16.40;50.80;;;;;;5077933;28;20632;-57
2022/05/18 06:41:56;;;;;;;;;;;16.30;51.30;;;;;;5082533;28;19908;-57
2022/05/18 06:44:23;;;;;;;;;;;16.20;51.40;;;;;;5077411;28;20330;-56
2022/05/18 06:46:49;;;;;;;;;;;16.20;51.10;;;;;;5076730;28;19912;-56
2022/05/18 06:49:16;;;;;;;;;;;16.20;51.00;;;;;;5077787;28;20870;-56
2022/05/18 06:51:43;;;;;;;;;;;16.20;51.00;;;;;;5078941;28;20024;-57
2022/05/18 06:54:09;;;;;;;;;;;16.20;51.10;;;;;;5074102;28;19923;-57
2022/05/18 06:56:36;;;;;;;;;;;16.20;52.20;;;;;;5079551;28;20299;-56
2022/05/18 06:59:02;;;;;;;;;;;16.10;51.30;;;;;;5079453;28;19934;-57
2022/05/18 07:01:28;;;;;;;;;;;16.10;51.40;;;;;;5070371;28;19926;-56
2022/05/18 07:03:54;;;;;;;;;;;16.10;51.50;;;;;;5085751;28;20311;-57
2022/05/18 07:06:22;;;;;;;;;;;16.10;51.50;;;;;;5082660;28;19912;-56
2022/05/18 07:08:47;;;;;;;;;;;16.20;51.80;;;;;;5084296;28;19992;-56
2022/05/18 07:11:14;;;;;;;;;;;16.20;52.20;;;;;;5079769;28;20426;-56
2022/05/18 07:13:39;;;;;;;;;;;16.20;51.50;;;;;;5077242;28;22210;-57
2022/05/18 07:16:05;;;;;;;;;;;16.20;51.50;;;;;;5078752;28;19912;-57
2022/05/18 07:18:32;;;;;;;;;;;16.30;51.40;;;;;;5080936;28;20373;-55
2022/05/18 07:20:58;;;;;;;;;;;16.30;51.40;;;;;;5069076;28;19916;-57
2022/05/18 07:23:25;;;;;;;;;;;16.40;51.40;;;;;;5074585;28;21247;-59
2022/05/18 07:25:54;;;;;;;;;;;16.40;51.10;;;;;;5077083;28;19949;-58
2022/05/18 07:28:20;;;;;;;;;;;16.40;51.20;;;;;;5074496;28;19953;-59
2022/05/18 07:30:46;;;;;;;;;;;16.40;51.30;;;;;;5073176;28;19912;-58
2022/05/18 07:33:11;;;;;;;;;;;16.50;51.30;;;;;;5078049;28;19927;-59
2022/05/18 07:35:37;;;;;;;;;;;16.60;51.30;;;;;;5076457;28;19964;-59
2022/05/18 07:38:03;;;;;;;;;;;16.70;51.10;;;;;;5076572;28;19916;-59
2022/05/18 07:40:29;;;;;;;;;;;16.70;51.40;;;;;;5074354;28;19988;-60
2022/05/18 07:42:56;;;;;;;;;;;16.60;51.00;;;;;;5077878;28;20824;-59
2022/05/18 07:45:22;;;;;;;;;;;16.60;50.90;;;;;;5078108;28;19985;-60
2022/05/18 07:47:48;;;;;;;;;;;16.50;51.00;;;;;;5075130;28;19912;-60
2022/05/18 07:50:16;;;;;;;;;;;16.50;51.40;;;;;;5080960;28;19916;-59
2022/05/18 07:52:43;;;;;;;;;;;16.30;51.30;;;;;;5074667;28;19920;-58
2022/05/18 07:55:08;;;;;;;;;;;16.30;51.60;;;;;;5076793;28;20598;-58
2022/05/18 07:57:34;;;;;;;;;;;16.20;51.60;;;;;;5070551;28;19916;-59
2022/05/18 07:59:59;;;;;;;;;;;16.20;51.80;;;;;;5072329;28;19912;-58
2022/05/18 08:02:26;;;;;;;;;;;16.10;51.90;;;;;;5062740;28;19923;-56
2022/05/18 08:04:52;;;;;;;;;;;16.00;51.90;;;;;;5067123;28;19947;-56
2022/05/18 08:07:18;;;;;;;;;;;16.00;52.30;;;;;;5075592;28;20019;-59
2022/05/18 08:15:13;;;;;;;;;;;15.70;52.60;;;;;;5077997;28;19980;-58
2022/05/18 08:17:43;;;;;;;;;;;15.70;52.30;;;;;;5072720;28;19920;-58
2022/05/18 08:20:09;;;;;;;;;;;15.60;52.30;;;;;;5074146;28;19919;-57
2022/05/18 08:22:35;;;;;;;;;;;15.50;52.80;;;;;;5076748;28;20252;-58
2022/05/18 08:25:01;;;;;;;;;;;15.40;52.70;;;;;;5079271;28;19920;-57
2022/05/18 08:27:27;;;;;;;;;;;15.30;53.20;;;;;;5078625;28;19924;-58
2022/05/18 08:29:58;;;;;;;;;;;15.30;52.80;;;;;;5072845;28;19984;-59
2022/05/18 08:32:24;;;;;;;;;;;15.20;52.90;;;;;;5078430;28;19916;-59
2022/05/18 08:34:49;;;;;;;;;;;15.10;53.30;;;;;;5070974;28;19915;-59
2022/05/18 08:37:15;;;;;;;;;;;15.00;52.80;;;;;;5074633;28;19947;-59
2022/05/18 08:39:41;;;;;;;;;;;14.90;52.80;;;;;;5071168;28;19918;-59
2022/05/18 08:42:08;;;;;;;;;;;14.80;53.30;;;;;;5070309;28;19912;-58
2022/05/18 08:44:36;;;;;;;;;;;14.90;53.50;;;;;;5076362;28;19916;-58
2022/05/18 08:47:10;;;;;;;;;;;14.90;52.90;;;;;;5075944;28;19916;-60
2022/05/18 08:49:39;;;;;;;;;;;14.90;53.00;;;;;;5077997;28;19916;-58
2022/05/18 08:52:24;;;;;;;;;;;15.00;53.30;;;;;;5080219;28;19919;-59
2022/05/18 08:54:59;;;;;;;;;;;15.10;53.10;;;;;;5068927;28;20370;-59
2022/05/18 08:57:28;;;;;;;;;;;15.20;53.50;;;;;;5076773;28;19915;-59
2022/05/18 08:59:56;;;;;;;;;;;15.30;53.30;;;;;;5052860;28;19920;-59
2022/05/18 09:02:26;;;;;;;;;;;15.40;53.10;;;;;;5068101;28;19916;-58
2022/05/18 09:04:55;;;;;;;;;;;15.50;52.60;;;;;;5070757;28;20002;-57
2022/05/18 09:07:24;;;;;;;;;;;15.60;52.50;;;;;;5076922;28;19915;-58
2022/05/18 09:12:34;;;;;;;;;;;15.80;52.30;;;;;;5074035;28;19977;-58
2022/05/18 09:15:03;;;;;;;;;;;15.80;52.30;;;;;;5056118;28;19920;-58
2022/05/18 09:17:31;;;;;;;;;;;15.80;52.50;;;;;;5080908;28;19957;-57
2022/05/18 09:20:05;;;;;;;;;;;15.70;52.10;;;;;;5076290;28;20038;-59
2022/05/18 09:22:46;;;;;;;;;;;15.70;51.20;;;;;;5076525;28;19916;-58
2022/05/18 09:25:24;;;;;;;;;;;15.60;51.60;;;;;;5068311;28;19916;-56
2022/05/18 09:27:57;;;;;;;;;;;15.60;51.80;;;;;;5081102;28;20439;-60
2022/05/18 09:30:30;;;;;;;;;;;15.60;52.10;;;;;;5085113;28;19973;-58
2022/05/18 09:32:59;;;;;;;;;;;15.60;52.10;;;;;;5082881;28;19919;-58
2022/05/18 09:35:31;;;;;;;;;;;15.60;52.20;;;;;;5082124;28;20340;-57
2022/05/18 09:38:08;;;;;;;;;;;15.70;52.30;;;;;;5074280;28;22724;-59
2022/05/18 09:40:36;;;;;;;;;;;15.60;51.80;;;;;;5082911;28;19916;-57
2022/05/18 09:43:41;;;;;;;;;;;15.70;52.30;;;;;;5080566;28;20029;-58
2022/05/18 09:46:11;;;;;;;;;;;15.70;52.10;;;;;;5006289;28;20587;-57
2022/05/18 09:48:39;;;;;;;;;;;15.70;52.10;;;;;;4991374;28;20004;-59
2022/05/18 09:51:06;;;;;;;;;;;15.80;52.50;;;;;;5043153;28;19919;-59
2022/05/18 09:53:32;;;;;;;;;;;15.80;53.40;;;;;;5079796;28;19912;-59
2022/05/18 09:55:57;;;;;;;;;;;15.70;53.90;;;;;;5078648;28;19911;-59
2022/05/18 09:58:24;;;;;;;;;;;15.60;54.10;;;;;;5081624;28;19916;-58
2022/05/18 10:07:26;;;;;;;;;;;15.50;52.70;;;;;;5079428;28;19922;-57
2022/05/18 10:09:22;;;;;;;;;;;15.20;53.70;;;;;;5077367;28;19989;-58
2022/05/18 10:11:47;;;;;;;;;;;15.20;53.60;;;;;;5077438;28;20482;-58
2022/05/18 10:14:25;;;;;;;;;;;15.10;53.30;;;;;;5081034;28;20323;-57
2022/05/18 10:17:03;;;;;;;;;;;15.10;53.00;;;;;;5082038;28;20372;-57
2022/05/18 10:19:31;;;;;;;;;;;15.20;53.30;;;;;;5083057;28;19908;-58
2022/05/18 10:22:02;;;;;;;;;;;15.20;53.40;;;;;;5082551;28;19955;-57
2022/05/18 10:24:33;;;;;;;;;;;15.20;53.00;;;;;;5081689;28;19926;-58
2022/05/18 10:27:10;;;;;;;;;;;15.20;53.00;;;;;;5085683;28;20355;-57
2022/05/18 10:29:36;;;;;;;;;;;15.20;53.00;;;;;;5083722;28;20348;-58
2022/05/18 10:32:10;;;;;;;;;;;15.20;53.20;;;;;;5083064;28;19920;-57
2022/05/18 10:34:46;;;;;;;;;;;15.30;53.30;;;;;;5085161;28;19923;-57
2022/05/18 10:37:13;;;;;;;;;;;15.40;53.20;;;;;;5082440;28;19926;-58
2022/05/18 10:39:44;;;;;;;;;;;15.40;53.40;;;;;;5080548;28;19943;-57
2022/05/18 10:42:28;;;;;;;;;;;15.50;53.80;;;;;;5084602;28;19931;-57
2022/05/18 10:44:55;;;;;;;;;;;15.50;53.70;;;;;;5074646;28;20253;-57
2022/05/18 10:47:26;;;;;;;;;;;15.50;54.00;;;;;;5072357;28;19969;-57
2022/05/18 10:49:53;;;;;;;;;;;15.50;53.60;;;;;;5079433;28;19923;-57
2022/05/18 10:52:20;;;;;;;;;;;15.40;53.80;;;;;;5081947;28;19924;-57
2022/05/18 10:54:59;;;;;;;;;;;15.40;53.50;;;;;;5079691;28;19911;-55
2022/05/18 10:57:35;;;;;;;;;;;15.40;53.60;;;;;;5081932;28;20006;-58
2022/05/18 11:00:11;;;;;;;;;;;15.40;54.10;;;;;;5072999;28;19935;-60
2022/05/18 11:02:39;;;;;;;;;;;15.50;54.70;;;;;;5071675;28;20308;-60
2022/05/18 11:05:20;;;;;;;;;;;15.50;54.20;;;;;;5068250;28;19912;-59
2022/05/18 11:07:46;;;;;;;;;;;15.50;54.50;;;;;;5078029;28;20045;-59
2022/05/18 11:10:12;;;;;;;;;;;15.50;55.20;;;;;;5082096;28;20026;-59
2022/05/18 11:13:04;;;;;;;;;;;15.50;55.00;;;;;;5081244;28;19908;-58
2022/05/18 11:15:38;;;;;;;;;;;15.40;54.90;;;;;;5072112;28;19954;-60
2022/05/18 11:18:04;;;;;;;;;;;15.40;55.20;;;;;;5078146;28;19915;-60
2022/05/18 11:20:45;;;;;;;;;;;15.40;55.40;;;;;;5081346;28;19927;-59
2022/05/18 11:23:30;;;;;;;;;;;15.40;55.50;;;;;;5075822;28;19915;-60
2022/05/18 11:26:13;;;;;;;;;;;15.40;56.10;;;;;;5081644;28;20338;-59
2022/05/18 11:28:57;;;;;;;;;;;15.40;55.80;;;;;;5080563;28;19916;-60
2022/05/18 11:31:31;;;;;;;;;;;15.50;55.70;;;;;;5080703;28;20426;-59
2022/05/18 11:34:01;;;;;;;;;;;15.50;56.40;;;;;;5079881;28;20275;-58
2022/05/18 11:36:45;;;;;;;;;;;15.50;56.00;;;;;;5085422;28;19919;-59
2022/05/18 11:39:14;;;;;;;;;;;15.50;56.20;;;;;;5078984;28;19912;-58
2022/05/18 11:41:57;;;;;;;;;;;15.60;56.60;;;;;;5081378;28;20012;-58
2022/05/18 11:44:33;;;;;;;;;;;15.60;56.70;;;;;;5078922;28;19916;-57
2022/05/18 11:46:59;;;;;;;;;;;15.60;56.10;;;;;;5078223;28;21263;-57
2022/05/18 11:49:33;;;;;;;;;;;15.60;56.40;;;;;;5079122;28;19915;-59
2022/05/18 11:52:25;;;;;;;;;;;15.60;55.80;;;;;;5069908;28;19923;-58
2022/05/18 11:55:07;;;;;;;;;;;15.60;56.30;;;;;;5071854;28;19973;-59
2022/05/18 11:57:57;;;;;;;;;;;15.60;55.70;;;;;;5077045;28;19916;-58
2022/05/18 12:03:26;;;;;;;;;;;15.50;55.00;;;;;;5081665;28;20274;-57
2022/05/18 12:06:11;;;;;;;;;;;15.50;55.50;;;;;;5070421;28;19926;-57
2022/05/18 12:08:39;;;;;;;;;;;15.40;56.00;;;;;;5084302;28;19919;-57
2022/05/18 12:11:14;;;;;;;;;;;15.30;55.90;;;;;;5082391;28;19912;-58
2022/05/18 12:13:59;;;;;;;;;;;15.30;55.80;;;;;;5078270;28;19912;-59
2022/05/18 12:16:33;;;;;;;;;;;15.20;56.00;;;;;;5078566;28;19916;-59
2022/05/18 12:19:14;;;;;;;;;;;15.20;55.90;;;;;;5077113;28;21238;-57
2022/05/18 12:21:48;;;;;;;;;;;15.20;56.20;;;;;;5074696;28;19912;-56
2022/05/18 12:24:14;;;;;;;;;;;15.10;56.00;;;;;;5079017;28;19916;-57
2022/05/18 12:26:41;;;;;;;;;;;15.20;56.40;;;;;;5060071;28;19927;-56
2022/05/18 12:29:08;;;;;;;;;;;15.10;56.60;;;;;;5078645;28;19989;-57
2022/05/18 12:31:34;;;;;;;;;;;15.10;57.00;;;;;;5058939;28;20010;-57
2022/05/18 12:34:06;;;;;;;;;;;15.10;56.70;;;;;;5085335;28;20341;-56
2022/05/18 12:36:43;;;;;;;;;;;15.10;56.70;;;;;;5081373;28;21022;-58
2022/05/18 12:39:18;;;;;;;;;;;15.00;56.80;;;;;;5078723;28;19908;-59
2022/05/18 12:41:45;;;;;;;;;;;15.10;57.00;;;;;;5079504;28;19908;-59
2022/05/18 12:44:12;;;;;;;;;;;15.10;57.00;;;;;;5085686;28;19912;-59
2022/05/18 12:46:43;;;;;;;;;;;15.10;57.50;;;;;;5078173;28;19951;-58
2022/05/18 12:49:11;;;;;;;;;;;15.10;57.70;;;;;;5081557;28;19911;-58
2022/05/18 12:51:58;;;;;;;;;;;15.20;57.30;;;;;;5075807;28;19943;-58
2022/05/18 12:54:29;;;;;;;;;;;15.20;57.30;;;;;;5036279;28;20030;-57
2022/05/18 12:57:07;;;;;;;;;;;15.20;57.50;;;;;;5072612;28;19939;-60
2022/05/18 12:59:46;;;;;;;;;;;15.20;57.50;;;;;;5063251;28;19915;-59
2022/05/18 13:02:41;;;;;;;;;;;15.20;57.70;;;;;;5078587;28;19920;-59
2022/05/18 13:05:25;;;;;;;;;;;15.30;58.10;;;;;;5058489;28;19993;-59
2022/05/18 13:07:51;;;;;;;;;;;15.20;58.90;;;;;;5068855;28;20443;-58
2022/05/18 13:10:19;;;;;;;;;;;15.20;58.60;;;;;;5075763;28;20641;-57
2022/05/18 13:12:56;;;;;;;;;;;15.20;58.60;;;;;;5081022;28;19912;-58
2022/05/18 13:15:34;;;;;;;;;;;15.20;59.10;;;;;;5074734;28;19916;-58
2022/05/18 13:18:09;;;;;;;;;;;15.20;59.30;;;;;;5077887;28;19946;-58
2022/05/18 13:20:45;;;;;;;;;;;15.20;59.40;;;;;;5080331;28;19915;-59
2022/05/18 13:23:29;;;;;;;;;;;15.20;59.40;;;;;;5073663;28;19965;-58
2022/05/18 13:26:00;;;;;;;;;;;15.20;59.40;;;;;;5076066;28;19920;-58
2022/05/18 13:28:28;;;;;;;;;;;15.20;60.00;;;;;;5077376;28;19908;-59
2022/05/18 13:30:55;;;;;;;;;;;15.10;59.70;;;;;;5075820;28;19912;-58
2022/05/18 13:33:21;;;;;;;;;;;15.10;59.80;;;;;;5078525;28;20301;-58
2022/05/18 13:35:48;;;;;;;;;;;15.10;60.00;;;;;;5077764;28;19923;-59
2022/05/18 13:38:14;;;;;;;;;;;15.10;60.60;;;;;;5075422;28;19916;-58
2022/05/18 13:40:46;;;;;;;;;;;15.00;60.70;;;;;;5077133;28;19912;-58
2022/05/18 13:43:13;;;;;;;;;;;15.00;60.70;;;;;;5075591;28;20789;-58
2022/05/18 13:45:42;;;;;;;;;;;15.00;60.80;;;;;;5077493;28;19969;-57
2022/05/18 13:48:09;;;;;;;;;;;14.90;60.70;;;;;;5072664;28;19911;-58
2022/05/18 13:50:43;;;;;;;;;;;14.90;60.50;;;;;;5082706;28;20364;-57
2022/05/18 13:53:15;;;;;;;;;;;14.80;61.00;;;;;;5077226;28;20300;-59
2022/05/18 13:55:42;;;;;;;;;;;14.80;60.90;;;;;;5076666;28;19908;-59
2022/05/18 13:58:08;;;;;;;;;;;14.70;62.00;;;;;;5075783;28;19946;-59
2022/05/18 14:00:40;;;;;;;;;;;14.70;61.70;;;;;;5076649;28;19912;-58
2022/05/18 14:03:06;;;;;;;;;;;14.70;62.50;;;;;;5083102;28;19912;-58
2022/05/18 14:05:33;;;;;;;;;;;14.70;62.30;;;;;;5077216;28;22784;-58
2022/05/18 14:07:59;;;;;;;;;;;14.70;63.00;;;;;;5077522;28;19935;-58
2022/05/18 14:10:27;;;;;;;;;;;14.70;63.00;;;;;;5078147;28;19969;-58
2022/05/18 14:12:57;;;;;;;;;;;14.80;63.40;;;;;;5076369;28;19938;-59
2022/05/18 14:15:23;;;;;;;;;;;14.80;63.30;;;;;;5077943;28;19927;-58
2022/05/18 14:17:53;;;;;;;;;;;14.80;64.00;;;;;;5080893;28;19912;-57
2022/05/18 14:20:24;;;;;;;;;;;14.70;63.80;;;;;;5077259;28;20339;-58
2022/05/18 14:22:53;;;;;;;;;;;14.70;63.10;;;;;;5079864;28;20604;-57
2022/05/18 14:25:21;;;;;;;;;;;14.60;63.90;;;;;;5079159;28;20043;-58
2022/05/18 14:27:59;;;;;;;;;;;14.50;63.80;;;;;;5074322;28;19919;-58
2022/05/18 14:30:38;;;;;;;;;;;14.40;65.30;;;;;;5075818;28;19969;-58
2022/05/18 14:33:23;;;;;;;;;;;14.30;66.00;;;;;;5079180;28;20321;-58
2022/05/18 14:35:50;;;;;;;;;;;14.30;65.80;;;;;;5078230;28;19938;-59
2022/05/18 14:38:30;;;;;;;;;;;14.10;66.20;;;;;;5080974;28;20318;-59
2022/05/18 14:40:57;;;;;;;;;;;14.10;66.50;;;;;;5081411;28;19919;-58
2022/05/18 14:43:27;;;;;;;;;;;14.00;66.80;;;;;;5079764;28;19908;-58
2022/05/18 14:46:02;;;;;;;;;;;14.00;67.00;;;;;;5076474;28;20368;-57
2022/05/18 14:48:29;;;;;;;;;;;14.00;67.20;;;;;;5078518;28;19995;-57